sensor_id;sensor_type;location;lat;lon;timestamp;temperature;humidity
38458;DHT22;24239;48.058;10.486;2023-12-14T00:00:45;5.20;99.90
38458;DHT22;24239;48.058;10.486;2023-12-14T00:03:31;5.20;99.90
38458;DHT22;24239;48.058;10.486;2023-12-14T00:06:17;5.10;99.90
38458;DHT22;24239;48.058;10.486;2023-12-14T00:09:03;5.00;99.90
38458;DHT22;24239;48.058;10.486;2023-12-14T00:11:49;5.10;99.90
38458;DHT22;24239;48.058;10.486;2023-12-14T00:14:35;5.10;99.90
38458;DHT22;24239;48.058;10.486;2023-12-14T00:17:20;5.10;99.90
38458;DHT22;24239;48.058;10.486;2023-12-14T00:20:06;5.10;99.90
38458;DHT22;24239;48.058;10.486;2023-12-14T00:22:53;5.10;99.90
38458;DHT22;24239;48.058;10.486;2023-12-14T00:25:38;5.00;99.90
38458;DHT22;24239;48.058;10.486;2023-12-14T00:28:27;4.90;99.90
38458;DHT22;24239;48.058;10.486;2023-12-14T00:31:14;5.00;99.90
38458;DHT22;24239;48.058;10.486;2023-12-14T00:34:00;5.00;99.90
38458;DHT22;24239;48.058;10.486;2023-12-14T00:36:45;5.00;99.90
38458;DHT22;24239;48.058;10.486;2023-12-14T00:39:31;4.70;99.90
38458;DHT22;24239;48.058;10.486;2023-12-14T00:42:17;4.80;99.90
38458;DHT22;24239;48.058;10.486;2023-12-14T00:45:03;4.80;99.90
38458;DHT22;24239;48.058;10.486;2023-12-14T00:47:49;4.90;99.90
38458;DHT22;24239;48.058;10.486;2023-12-14T00:50:35;4.80;99.90
38458;DHT22;24239;48.058;10.486;2023-12-14T00:53:21;4.80;99.90
38458;DHT22;24239;48.058;10.486;2023-12-14T00:56:08;4.80;99.90
38458;DHT22;24239;48.058;10.486;2023-12-14T00:58:54;4.70;99.90
38458;DHT22;24239;48.058;10.486;2023-12-14T01:01:40;4.80;99.90
38458;DHT22;24239;48.058;10.486;2023-12-14T01:04:27;4.80;99.90
38458;DHT22;24239;48.058;10.486;2023-12-14T01:07:13;4.60;99.90
38458;DHT22;24239;48.058;10.486;2023-12-14T01:09:59;4.70;99.90
38458;DHT22;24239;48.058;10.486;2023-12-14T01:12:44;4.70;99.90
38458;DHT22;24239;48.058;10.486;2023-12-14T01:15:32;4.40;99.90
38458;DHT22;24239;48.058;10.486;2023-12-14T01:18:18;4.40;99.90
38458;DHT22;24239;48.058;10.486;2023-12-14T01:21:04;4.50;99.90
38458;DHT22;24239;48.058;10.486;2023-12-14T01:23:50;4.40;99.90
38458;DHT22;24239;48.058;10.486;2023-12-14T01:26:37;4.30;99.90
38458;DHT22;24239;48.058;10.486;2023-12-14T01:29:23;4.40;99.90
38458;DHT22;24239;48.058;10.486;2023-12-14T01:32:10;4.20;99.90
38458;DHT22;24239;48.058;10.486;2023-12-14T01:35:01;4.30;99.90
38458;DHT22;24239;48.058;10.486;2023-12-14T01:37:46;4.20;99.90
38458;DHT22;24239;48.058;10.486;2023-12-14T01:40:32;4.10;99.90
38458;DHT22;24239;48.058;10.486;2023-12-14T01:43:18;4.20;99.90
38458;DHT22;24239;48.058;10.486;2023-12-14T01:46:04;4.10;99.90
38458;DHT22;24239;48.058;10.486;2023-12-14T01:48:53;4.10;99.90
38458;DHT22;24239;48.058;10.486;2023-12-14T01:51:40;4.10;99.90
38458;DHT22;24239;48.058;10.486;2023-12-14T01:54:28;4.10;99.90
38458;DHT22;24239;48.058;10.486;2023-12-14T01:57:16;4.20;99.90
38458;DHT22;24239;48.058;10.486;2023-12-14T02:00:01;4.10;99.90
38458;DHT22;24239;48.058;10.486;2023-12-14T02:02:47;4.10;99.90
38458;DHT22;24239;48.058;10.486;2023-12-14T02:05:33;4.00;99.90
38458;DHT22;24239;48.058;10.486;2023-12-14T02:08:19;4.10;99.90
38458;DHT22;24239;48.058;10.486;2023-12-14T02:11:05;4.20;99.90
38458;DHT22;24239;48.058;10.486;2023-12-14T02:13:51;4.10;99.90
38458;DHT22;24239;48.058;10.486;2023-12-14T02:16:37;4.10;99.90
38458;DHT22;24239;48.058;10.486;2023-12-14T02:19:25;4.10;99.90
38458;DHT22;24239;48.058;10.486;2023-12-14T02:22:11;4.10;99.90
38458;DHT22;24239;48.058;10.486;2023-12-14T02:24:57;4.10;99.90
38458;DHT22;24239;48.058;10.486;2023-12-14T02:27:43;4.10;99.90
38458;DHT22;24239;48.058;10.486;2023-12-14T02:30:29;4.10;99.90
38458;DHT22;24239;48.058;10.486;2023-12-14T02:33:15;4.00;99.90
38458;DHT22;24239;48.058;10.486;2023-12-14T02:36:01;4.10;99.90
38458;DHT22;24239;48.058;10.486;2023-12-14T02:38:49;4.10;99.90
38458;DHT22;24239;48.058;10.486;2023-12-14T02:41:35;4.30;99.90
38458;DHT22;24239;48.058;10.486;2023-12-14T02:44:21;4.10;99.90
38458;DHT22;24239;48.058;10.486;2023-12-14T02:47:06;4.20;99.90
38458;DHT22;24239;48.058;10.486;2023-12-14T02:49:53;4.10;99.90
38458;DHT22;24239;48.058;10.486;2023-12-14T02:52:41;4.20;99.90
38458;DHT22;24239;48.058;10.486;2023-12-14T02:55:30;4.10;99.90
38458;DHT22;24239;48.058;10.486;2023-12-14T02:58:16;4.20;99.90
38458;DHT22;24239;48.058;10.486;2023-12-14T03:01:02;4.10;99.90
38458;DHT22;24239;48.058;10.486;2023-12-14T03:03:48;4.20;99.90
38458;DHT22;24239;48.058;10.486;2023-12-14T03:06:34;4.00;99.90
38458;DHT22;24239;48.058;10.486;2023-12-14T03:09:22;4.00;99.90
38458;DHT22;24239;48.058;10.486;2023-12-14T03:12:09;4.10;99.90
38458;DHT22;24239;48.058;10.486;2023-12-14T03:14:56;3.90;99.90
38458;DHT22;24239;48.058;10.486;2023-12-14T03:17:42;4.00;99.90
38458;DHT22;24239;48.058;10.486;2023-12-14T03:20:29;4.00;99.90
38458;DHT22;24239;48.058;10.486;2023-12-14T03:23:17;4.00;99.90
38458;DHT22;24239;48.058;10.486;2023-12-14T03:26:03;4.00;99.90
38458;DHT22;24239;48.058;10.486;2023-12-14T03:28:48;4.10;99.90
38458;DHT22;24239;48.058;10.486;2023-12-14T03:31:36;4.10;99.90
38458;DHT22;24239;48.058;10.486;2023-12-14T03:34:22;4.20;99.90
38458;DHT22;24239;48.058;10.486;2023-12-14T03:37:08;4.10;99.90
38458;DHT22;24239;48.058;10.486;2023-12-14T03:39:54;4.10;99.90
38458;DHT22;24239;48.058;10.486;2023-12-14T03:42:40;4.10;99.90
38458;DHT22;24239;48.058;10.486;2023-12-14T03:45:26;4.10;99.90
38458;DHT22;24239;48.058;10.486;2023-12-14T03:48:13;4.10;99.90
38458;DHT22;24239;48.058;10.486;2023-12-14T03:51:02;4.10;99.90
38458;DHT22;24239;48.058;10.486;2023-12-14T03:53:48;4.30;99.90
38458;DHT22;24239;48.058;10.486;2023-12-14T03:56:35;4.10;99.90
38458;DHT22;24239;48.058;10.486;2023-12-14T03:59:22;4.20;99.90
38458;DHT22;24239;48.058;10.486;2023-12-14T04:02:08;4.10;99.90
38458;DHT22;24239;48.058;10.486;2023-12-14T04:04:57;4.20;99.90
38458;DHT22;24239;48.058;10.486;2023-12-14T04:07:43;4.10;99.90
38458;DHT22;24239;48.058;10.486;2023-12-14T04:10:29;4.20;99.90
38458;DHT22;24239;48.058;10.486;2023-12-14T04:13:15;4.20;99.90
38458;DHT22;24239;48.058;10.486;2023-12-14T04:16:00;4.20;99.90
38458;DHT22;24239;48.058;10.486;2023-12-14T04:18:50;4.20;99.90
38458;DHT22;24239;48.058;10.486;2023-12-14T04:21:39;4.20;99.90
38458;DHT22;24239;48.058;10.486;2023-12-14T04:24:25;4.30;99.90
38458;DHT22;24239;48.058;10.486;2023-12-14T04:27:11;4.20;99.90
38458;DHT22;24239;48.058;10.486;2023-12-14T04:29:57;4.10;99.90
38458;DHT22;24239;48.058;10.486;2023-12-14T04:32:44;4.10;99.90
38458;DHT22;24239;48.058;10.486;2023-12-14T04:35:31;4.20;99.90
38458;DHT22;24239;48.058;10.486;2023-12-14T04:38:23;4.10;99.90
38458;DHT22;24239;48.058;10.486;2023-12-14T04:41:10;4.00;99.90
38458;DHT22;24239;48.058;10.486;2023-12-14T04:43:56;4.10;99.90
38458;DHT22;24239;48.058;10.486;2023-12-14T04:46:42;4.10;99.90
38458;DHT22;24239;48.058;10.486;2023-12-14T04:49:30;4.00;99.90
38458;DHT22;24239;48.058;10.486;2023-12-14T04:52:15;4.10;99.90
38458;DHT22;24239;48.058;10.486;2023-12-14T04:55:01;4.20;99.90
38458;DHT22;24239;48.058;10.486;2023-12-14T04:57:47;4.20;99.90
38458;DHT22;24239;48.058;10.486;2023-12-14T05:00:34;4.20;99.90
38458;DHT22;24239;48.058;10.486;2023-12-14T05:03:20;4.20;99.90
38458;DHT22;24239;48.058;10.486;2023-12-14T05:06:06;4.20;99.90
38458;DHT22;24239;48.058;10.486;2023-12-14T05:08:52;4.20;99.90
38458;DHT22;24239;48.058;10.486;2023-12-14T05:11:41;4.30;99.90
38458;DHT22;24239;48.058;10.486;2023-12-14T05:14:29;4.20;99.90
38458;DHT22;24239;48.058;10.486;2023-12-14T05:17:17;4.20;99.90
38458;DHT22;24239;48.058;10.486;2023-12-14T05:20:04;4.20;99.90
38458;DHT22;24239;48.058;10.486;2023-12-14T05:22:51;4.10;99.90
38458;DHT22;24239;48.058;10.486;2023-12-14T05:25:36;4.20;99.90
38458;DHT22;24239;48.058;10.486;2023-12-14T05:28:23;4.30;99.90
38458;DHT22;24239;48.058;10.486;2023-12-14T05:31:10;4.20;99.90
38458;DHT22;24239;48.058;10.486;2023-12-14T05:33:58;4.20;99.90
38458;DHT22;24239;48.058;10.486;2023-12-14T05:36:44;4.20;99.90
38458;DHT22;24239;48.058;10.486;2023-12-14T05:39:30;4.20;99.90
38458;DHT22;24239;48.058;10.486;2023-12-14T05:42:16;4.30;99.90
38458;DHT22;24239;48.058;10.486;2023-12-14T05:45:04;4.20;99.90
38458;DHT22;24239;48.058;10.486;2023-12-14T05:47:50;4.30;99.90
38458;DHT22;24239;48.058;10.486;2023-12-14T05:50:36;4.20;99.90
38458;DHT22;24239;48.058;10.486;2023-12-14T05:53:22;4.20;99.90
38458;DHT22;24239;48.058;10.486;2023-12-14T05:56:08;4.30;99.90
38458;DHT22;24239;48.058;10.486;2023-12-14T05:58:55;4.20;99.90
38458;DHT22;24239;48.058;10.486;2023-12-14T06:01:44;4.30;99.90
38458;DHT22;24239;48.058;10.486;2023-12-14T06:04:31;4.20;99.90
38458;DHT22;24239;48.058;10.486;2023-12-14T06:07:16;4.20;99.90
38458;DHT22;24239;48.058;10.486;2023-12-14T06:10:02;4.30;99.90
38458;DHT22;24239;48.058;10.486;2023-12-14T06:12:49;4.20;99.90
38458;DHT22;24239;48.058;10.486;2023-12-14T06:15:37;4.30;99.90
38458;DHT22;24239;48.058;10.486;2023-12-14T06:18:26;4.30;99.90
38458;DHT22;24239;48.058;10.486;2023-12-14T06:21:12;4.30;99.90
38458;DHT22;24239;48.058;10.486;2023-12-14T06:23:59;4.30;99.90
38458;DHT22;24239;48.058;10.486;2023-12-14T06:26:45;4.30;99.90
38458;DHT22;24239;48.058;10.486;2023-12-14T06:29:31;4.30;99.90
38458;DHT22;24239;48.058;10.486;2023-12-14T06:32:17;4.40;99.90
38458;DHT22;24239;48.058;10.486;2023-12-14T06:35:03;4.30;99.90
38458;DHT22;24239;48.058;10.486;2023-12-14T06:37:49;4.30;99.90
38458;DHT22;24239;48.058;10.486;2023-12-14T06:40:35;4.30;99.90
38458;DHT22;24239;48.058;10.486;2023-12-14T06:43:21;4.40;99.90
38458;DHT22;24239;48.058;10.486;2023-12-14T06:46:08;4.40;99.90
38458;DHT22;24239;48.058;10.486;2023-12-14T06:48:54;4.30;99.90
38458;DHT22;24239;48.058;10.486;2023-12-14T06:51:40;4.30;99.90
38458;DHT22;24239;48.058;10.486;2023-12-14T06:54:27;4.40;99.90
38458;DHT22;24239;48.058;10.486;2023-12-14T06:57:12;4.40;99.90
38458;DHT22;24239;48.058;10.486;2023-12-14T06:59:58;4.30;99.90
38458;DHT22;24239;48.058;10.486;2023-12-14T07:02:44;4.30;99.90
38458;DHT22;24239;48.058;10.486;2023-12-14T07:05:34;4.30;99.90
38458;DHT22;24239;48.058;10.486;2023-12-14T07:08:20;4.40;99.90
38458;DHT22;24239;48.058;10.486;2023-12-14T07:11:07;4.30;99.90
38458;DHT22;24239;48.058;10.486;2023-12-14T07:13:53;4.30;99.90
38458;DHT22;24239;48.058;10.486;2023-12-14T07:16:41;4.40;99.90
38458;DHT22;24239;48.058;10.486;2023-12-14T07:19:27;4.40;99.90
38458;DHT22;24239;48.058;10.486;2023-12-14T07:22:13;4.50;99.90
38458;DHT22;24239;48.058;10.486;2023-12-14T07:24:59;4.50;99.90
38458;DHT22;24239;48.058;10.486;2023-12-14T07:27:46;4.50;99.90
38458;DHT22;24239;48.058;10.486;2023-12-14T07:30:36;4.50;99.90
38458;DHT22;24239;48.058;10.486;2023-12-14T07:33:23;4.40;99.90
38458;DHT22;24239;48.058;10.486;2023-12-14T07:36:11;4.50;99.90
38458;DHT22;24239;48.058;10.486;2023-12-14T07:39:00;4.60;99.90
38458;DHT22;24239;48.058;10.486;2023-12-14T07:41:46;4.50;99.90
38458;DHT22;24239;48.058;10.486;2023-12-14T07:44:33;4.50;99.90
38458;DHT22;24239;48.058;10.486;2023-12-14T07:47:21;4.60;99.90
38458;DHT22;24239;48.058;10.486;2023-12-14T07:50:06;4.60;99.90
38458;DHT22;24239;48.058;10.486;2023-12-14T07:52:54;4.50;99.90
38458;DHT22;24239;48.058;10.486;2023-12-14T07:55:41;4.60;99.90
38458;DHT22;24239;48.058;10.486;2023-12-14T07:58:27;4.70;99.90
38458;DHT22;24239;48.058;10.486;2023-12-14T08:01:13;4.60;99.90
38458;DHT22;24239;48.058;10.486;2023-12-14T08:03:59;4.60;99.90
38458;DHT22;24239;48.058;10.486;2023-12-14T08:06:46;4.50;99.90
38458;DHT22;24239;48.058;10.486;2023-12-14T08:09:32;4.70;99.90
38458;DHT22;24239;48.058;10.486;2023-12-14T08:12:19;4.60;99.90
38458;DHT22;24239;48.058;10.486;2023-12-14T08:15:07;4.60;99.90
38458;DHT22;24239;48.058;10.486;2023-12-14T08:17:54;4.80;99.90
38458;DHT22;24239;48.058;10.486;2023-12-14T08:20:41;4.70;99.90
38458;DHT22;24239;48.058;10.486;2023-12-14T08:23:27;4.80;99.90
38458;DHT22;24239;48.058;10.486;2023-12-14T08:26:15;4.80;99.90
38458;DHT22;24239;48.058;10.486;2023-12-14T08:29:01;4.90;99.90
38458;DHT22;24239;48.058;10.486;2023-12-14T08:31:47;5.10;99.90
38458;DHT22;24239;48.058;10.486;2023-12-14T08:34:33;4.90;99.90
38458;DHT22;24239;48.058;10.486;2023-12-14T08:37:19;5.00;99.90
38458;DHT22;24239;48.058;10.486;2023-12-14T08:40:05;5.00;99.90
38458;DHT22;24239;48.058;10.486;2023-12-14T08:42:54;4.90;99.90
38458;DHT22;24239;48.058;10.486;2023-12-14T08:45:40;5.00;99.90
38458;DHT22;24239;48.058;10.486;2023-12-14T08:48:26;5.00;99.90
38458;DHT22;24239;48.058;10.486;2023-12-14T08:51:12;5.10;99.90
38458;DHT22;24239;48.058;10.486;2023-12-14T08:53:58;5.00;99.90
38458;DHT22;24239;48.058;10.486;2023-12-14T08:56:46;5.10;99.90
38458;DHT22;24239;48.058;10.486;2023-12-14T08:59:32;5.10;99.90
38458;DHT22;24239;48.058;10.486;2023-12-14T09:02:19;5.10;99.90
38458;DHT22;24239;48.058;10.486;2023-12-14T09:05:05;5.00;99.90
38458;DHT22;24239;48.058;10.486;2023-12-14T09:07:53;5.00;99.90
38458;DHT22;24239;48.058;10.486;2023-12-14T09:10:41;5.00;99.90
38458;DHT22;24239;48.058;10.486;2023-12-14T09:13:30;4.80;99.90
38458;DHT22;24239;48.058;10.486;2023-12-14T09:16:16;4.90;99.90
38458;DHT22;24239;48.058;10.486;2023-12-14T09:19:03;4.90;99.90
38458;DHT22;24239;48.058;10.486;2023-12-14T09:21:50;4.80;99.90
38458;DHT22;24239;48.058;10.486;2023-12-14T09:24:36;4.80;99.90
38458;DHT22;24239;48.058;10.486;2023-12-14T09:27:23;4.70;99.90
38458;DHT22;24239;48.058;10.486;2023-12-14T09:30:09;4.70;99.90
38458;DHT22;24239;48.058;10.486;2023-12-14T09:32:55;4.70;99.90
38458;DHT22;24239;48.058;10.486;2023-12-14T09:35:41;4.70;99.90
38458;DHT22;24239;48.058;10.486;2023-12-14T09:38:28;4.80;99.90
38458;DHT22;24239;48.058;10.486;2023-12-14T09:41:14;4.90;99.90
38458;DHT22;24239;48.058;10.486;2023-12-14T09:44:02;4.90;99.90
38458;DHT22;24239;48.058;10.486;2023-12-14T09:46:49;5.10;99.90
38458;DHT22;24239;48.058;10.486;2023-12-14T09:49:36;5.30;99.90
38458;DHT22;24239;48.058;10.486;2023-12-14T09:52:22;5.50;99.90
38458;DHT22;24239;48.058;10.486;2023-12-14T09:55:08;5.60;99.90
38458;DHT22;24239;48.058;10.486;2023-12-14T09:57:55;5.50;99.90
38458;DHT22;24239;48.058;10.486;2023-12-14T10:00:41;5.50;99.90
38458;DHT22;24239;48.058;10.486;2023-12-14T10:03:27;5.50;99.90
38458;DHT22;24239;48.058;10.486;2023-12-14T10:06:13;5.60;99.90
38458;DHT22;24239;48.058;10.486;2023-12-14T10:08:59;5.60;99.90
38458;DHT22;24239;48.058;10.486;2023-12-14T10:15:16;5.40;99.90
38458;DHT22;24239;48.058;10.486;2023-12-14T10:18:02;5.40;99.90
38458;DHT22;24239;48.058;10.486;2023-12-14T10:20:48;5.30;99.90
38458;DHT22;24239;48.058;10.486;2023-12-14T10:23:35;5.30;99.90
38458;DHT22;24239;48.058;10.486;2023-12-14T10:26:22;5.20;99.90
38458;DHT22;24239;48.058;10.486;2023-12-14T10:29:13;5.20;99.90
38458;DHT22;24239;48.058;10.486;2023-12-14T10:32:02;5.20;99.90
38458;DHT22;24239;48.058;10.486;2023-12-14T10:34:52;5.20;99.90
38458;DHT22;24239;48.058;10.486;2023-12-14T10:37:38;5.20;99.90
38458;DHT22;24239;48.058;10.486;2023-12-14T10:40:25;5.20;99.90
38458;DHT22;24239;48.058;10.486;2023-12-14T10:43:12;5.30;99.90
38458;DHT22;24239;48.058;10.486;2023-12-14T10:45:59;5.30;99.90
38458;DHT22;24239;48.058;10.486;2023-12-14T10:48:45;5.40;99.90
38458;DHT22;24239;48.058;10.486;2023-12-14T10:51:32;5.50;99.90
38458;DHT22;24239;48.058;10.486;2023-12-14T10:54:23;5.60;99.90
38458;DHT22;24239;48.058;10.486;2023-12-14T10:57:10;5.60;99.90
38458;DHT22;24239;48.058;10.486;2023-12-14T10:59:59;5.80;99.90
38458;DHT22;24239;48.058;10.486;2023-12-14T11:02:46;5.70;99.90
38458;DHT22;24239;48.058;10.486;2023-12-14T11:05:34;5.60;99.90
38458;DHT22;24239;48.058;10.486;2023-12-14T11:08:23;5.50;99.90
38458;DHT22;24239;48.058;10.486;2023-12-14T11:11:09;5.50;99.90
38458;DHT22;24239;48.058;10.486;2023-12-14T11:13:58;5.50;99.90
38458;DHT22;24239;48.058;10.486;2023-12-14T11:16:50;5.60;99.90
38458;DHT22;24239;48.058;10.486;2023-12-14T11:19:36;5.50;99.90
38458;DHT22;24239;48.058;10.486;2023-12-14T11:22:23;5.60;99.90
38458;DHT22;24239;48.058;10.486;2023-12-14T11:25:12;5.80;99.90
38458;DHT22;24239;48.058;10.486;2023-12-14T11:28:02;5.90;99.90
38458;DHT22;24239;48.058;10.486;2023-12-14T11:30:48;5.90;99.90
38458;DHT22;24239;48.058;10.486;2023-12-14T11:33:34;6.20;99.90
38458;DHT22;24239;48.058;10.486;2023-12-14T11:36:20;6.20;99.90
38458;DHT22;24239;48.058;10.486;2023-12-14T11:39:09;6.20;99.90
38458;DHT22;24239;48.058;10.486;2023-12-14T11:44:45;6.40;99.90
38458;DHT22;24239;48.058;10.486;2023-12-14T11:47:31;6.40;99.90
38458;DHT22;24239;48.058;10.486;2023-12-14T11:50:19;6.30;99.90
38458;DHT22;24239;48.058;10.486;2023-12-14T11:53:07;6.60;99.90
38458;DHT22;24239;48.058;10.486;2023-12-14T11:55:54;6.40;99.90
38458;DHT22;24239;48.058;10.486;2023-12-14T11:58:40;6.50;99.90
38458;DHT22;24239;48.058;10.486;2023-12-14T12:01:28;6.60;99.90
38458;DHT22;24239;48.058;10.486;2023-12-14T12:04:14;6.60;99.90
38458;DHT22;24239;48.058;10.486;2023-12-14T12:07:00;6.60;99.90
38458;DHT22;24239;48.058;10.486;2023-12-14T12:09:47;6.60;99.90
38458;DHT22;24239;48.058;10.486;2023-12-14T12:12:34;6.50;99.90
38458;DHT22;24239;48.058;10.486;2023-12-14T12:15:23;6.50;99.90
38458;DHT22;24239;48.058;10.486;2023-12-14T12:18:10;6.40;99.90
38458;DHT22;24239;48.058;10.486;2023-12-14T12:20:56;6.30;99.90
38458;DHT22;24239;48.058;10.486;2023-12-14T12:23:47;6.30;99.90
38458;DHT22;24239;48.058;10.486;2023-12-14T12:26:34;6.30;99.90
38458;DHT22;24239;48.058;10.486;2023-12-14T12:29:22;6.40;99.90
38458;DHT22;24239;48.058;10.486;2023-12-14T12:32:14;6.50;99.90
38458;DHT22;24239;48.058;10.486;2023-12-14T12:35:00;6.60;99.90
38458;DHT22;24239;48.058;10.486;2023-12-14T12:37:46;6.50;99.90
38458;DHT22;24239;48.058;10.486;2023-12-14T12:40:33;6.60;99.90
38458;DHT22;24239;48.058;10.486;2023-12-14T12:43:22;6.60;99.90
38458;DHT22;24239;48.058;10.486;2023-12-14T12:46:09;6.50;99.90
38458;DHT22;24239;48.058;10.486;2023-12-14T12:48:56;6.60;99.90
38458;DHT22;24239;48.058;10.486;2023-12-14T12:51:44;6.50;99.90
38458;DHT22;24239;48.058;10.486;2023-12-14T12:54:32;6.50;99.90
38458;DHT22;24239;48.058;10.486;2023-12-14T12:57:20;6.40;99.90
38458;DHT22;24239;48.058;10.486;2023-12-14T13:00:07;6.50;99.90
38458;DHT22;24239;48.058;10.486;2023-12-14T13:02:56;6.60;99.90
38458;DHT22;24239;48.058;10.486;2023-12-14T13:05:42;6.60;99.90
38458;DHT22;24239;48.058;10.486;2023-12-14T13:08:29;6.60;99.90
38458;DHT22;24239;48.058;10.486;2023-12-14T13:11:15;6.50;99.90
38458;DHT22;24239;48.058;10.486;2023-12-14T13:14:01;6.60;99.90
38458;DHT22;24239;48.058;10.486;2023-12-14T13:16:50;6.60;99.90
38458;DHT22;24239;48.058;10.486;2023-12-14T13:19:37;6.60;99.90
38458;DHT22;24239;48.058;10.486;2023-12-14T13:22:24;6.60;99.90
38458;DHT22;24239;48.058;10.486;2023-12-14T13:25:10;6.50;99.90
38458;DHT22;24239;48.058;10.486;2023-12-14T13:27:56;6.50;99.90
38458;DHT22;24239;48.058;10.486;2023-12-14T13:30:42;6.50;99.90
38458;DHT22;24239;48.058;10.486;2023-12-14T13:33:28;6.40;99.90
38458;DHT22;24239;48.058;10.486;2023-12-14T13:36:14;6.60;99.90
38458;DHT22;24239;48.058;10.486;2023-12-14T13:39:02;6.70;99.90
38458;DHT22;24239;48.058;10.486;2023-12-14T13:41:50;6.90;99.90
38458;DHT22;24239;48.058;10.486;2023-12-14T13:44:39;7.00;99.90
38458;DHT22;24239;48.058;10.486;2023-12-14T13:47:25;6.90;99.90
38458;DHT22;24239;48.058;10.486;2023-12-14T13:50:10;6.80;99.90
38458;DHT22;24239;48.058;10.486;2023-12-14T13:52:56;6.80;99.90
38458;DHT22;24239;48.058;10.486;2023-12-14T13:55:42;6.70;99.90
38458;DHT22;24239;48.058;10.486;2023-12-14T13:58:28;6.70;99.90
38458;DHT22;24239;48.058;10.486;2023-12-14T14:01:14;6.70;99.90
38458;DHT22;24239;48.058;10.486;2023-12-14T14:04:00;6.60;99.90
38458;DHT22;24239;48.058;10.486;2023-12-14T14:06:46;6.40;99.90
38458;DHT22;24239;48.058;10.486;2023-12-14T14:09:32;6.40;99.90
38458;DHT22;24239;48.058;10.486;2023-12-14T14:12:18;6.20;99.90
38458;DHT22;24239;48.058;10.486;2023-12-14T14:15:06;6.20;99.90
38458;DHT22;24239;48.058;10.486;2023-12-14T14:17:53;6.10;99.90
38458;DHT22;24239;48.058;10.486;2023-12-14T14:20:41;6.10;99.90
38458;DHT22;24239;48.058;10.486;2023-12-14T14:23:27;6.00;99.90
38458;DHT22;24239;48.058;10.486;2023-12-14T14:26:13;6.00;99.90
38458;DHT22;24239;48.058;10.486;2023-12-14T14:28:59;5.80;99.90
38458;DHT22;24239;48.058;10.486;2023-12-14T14:31:48;5.70;99.90
38458;DHT22;24239;48.058;10.486;2023-12-14T14:34:34;5.60;99.90
38458;DHT22;24239;48.058;10.486;2023-12-14T14:37:21;5.50;99.90
38458;DHT22;24239;48.058;10.486;2023-12-14T14:40:07;5.50;99.90
38458;DHT22;24239;48.058;10.486;2023-12-14T14:42:53;5.30;99.90
38458;DHT22;24239;48.058;10.486;2023-12-14T14:45:39;5.20;99.90
38458;DHT22;24239;48.058;10.486;2023-12-14T14:48:25;5.10;99.90
38458;DHT22;24239;48.058;10.486;2023-12-14T14:51:11;5.00;99.90
38458;DHT22;24239;48.058;10.486;2023-12-14T14:53:58;5.10;99.90
38458;DHT22;24239;48.058;10.486;2023-12-14T14:56:44;4.90;99.90
38458;DHT22;24239;48.058;10.486;2023-12-14T14:59:30;4.80;99.90
38458;DHT22;24239;48.058;10.486;2023-12-14T15:02:16;4.70;99.90
38458;DHT22;24239;48.058;10.486;2023-12-14T15:05:02;4.60;99.90
38458;DHT22;24239;48.058;10.486;2023-12-14T15:07:48;4.50;99.90
38458;DHT22;24239;48.058;10.486;2023-12-14T15:10:34;4.40;99.90
38458;DHT22;24239;48.058;10.486;2023-12-14T15:13:21;4.30;99.90
38458;DHT22;24239;48.058;10.486;2023-12-14T15:16:11;4.30;99.90
38458;DHT22;24239;48.058;10.486;2023-12-14T15:18:57;4.30;99.90
38458;DHT22;24239;48.058;10.486;2023-12-14T15:21:44;4.30;99.90
38458;DHT22;24239;48.058;10.486;2023-12-14T15:24:31;4.30;99.90
38458;DHT22;24239;48.058;10.486;2023-12-14T15:27:20;4.30;99.90
38458;DHT22;24239;48.058;10.486;2023-12-14T15:30:09;4.30;99.90
38458;DHT22;24239;48.058;10.486;2023-12-14T15:32:57;4.30;99.90
38458;DHT22;24239;48.058;10.486;2023-12-14T15:35:43;4.40;99.90
38458;DHT22;24239;48.058;10.486;2023-12-14T15:38:29;4.40;99.90
38458;DHT22;24239;48.058;10.486;2023-12-14T15:41:18;4.50;99.90
38458;DHT22;24239;48.058;10.486;2023-12-14T15:44:04;4.50;99.90
38458;DHT22;24239;48.058;10.486;2023-12-14T15:46:51;4.50;99.90
38458;DHT22;24239;48.058;10.486;2023-12-14T15:49:36;4.50;99.90
38458;DHT22;24239;48.058;10.486;2023-12-14T15:52:22;4.40;99.90
38458;DHT22;24239;48.058;10.486;2023-12-14T15:55:08;4.50;99.90
38458;DHT22;24239;48.058;10.486;2023-12-14T15:57:56;4.50;99.90
38458;DHT22;24239;48.058;10.486;2023-12-14T16:00:43;4.40;99.90
38458;DHT22;24239;48.058;10.486;2023-12-14T16:03:29;4.50;99.90
38458;DHT22;24239;48.058;10.486;2023-12-14T16:06:16;4.50;99.90
38458;DHT22;24239;48.058;10.486;2023-12-14T16:09:05;4.50;99.90
38458;DHT22;24239;48.058;10.486;2023-12-14T16:11:51;4.60;99.90
38458;DHT22;24239;48.058;10.486;2023-12-14T16:14:36;4.60;99.90
38458;DHT22;24239;48.058;10.486;2023-12-14T16:17:23;4.70;99.90
38458;DHT22;24239;48.058;10.486;2023-12-14T16:20:09;4.70;99.90
38458;DHT22;24239;48.058;10.486;2023-12-14T16:22:55;4.60;99.90
38458;DHT22;24239;48.058;10.486;2023-12-14T16:25:42;4.60;99.90
38458;DHT22;24239;48.058;10.486;2023-12-14T16:28:28;4.70;99.90
38458;DHT22;24239;48.058;10.486;2023-12-14T16:31:15;4.70;99.90
38458;DHT22;24239;48.058;10.486;2023-12-14T16:34:02;4.80;99.90
38458;DHT22;24239;48.058;10.486;2023-12-14T16:36:51;4.70;99.90
38458;DHT22;24239;48.058;10.486;2023-12-14T16:39:40;4.80;99.90
38458;DHT22;24239;48.058;10.486;2023-12-14T16:42:26;4.70;99.90
38458;DHT22;24239;48.058;10.486;2023-12-14T16:45:12;4.80;99.90
38458;DHT22;24239;48.058;10.486;2023-12-14T16:47:58;4.60;99.90
38458;DHT22;24239;48.058;10.486;2023-12-14T16:50:44;4.60;99.90
38458;DHT22;24239;48.058;10.486;2023-12-14T16:53:30;4.70;99.90
38458;DHT22;24239;48.058;10.486;2023-12-14T16:56:16;4.70;99.90
38458;DHT22;24239;48.058;10.486;2023-12-14T16:59:03;4.80;99.90
38458;DHT22;24239;48.058;10.486;2023-12-14T17:01:49;4.70;99.90
38458;DHT22;24239;48.058;10.486;2023-12-14T17:04:35;4.70;99.90
38458;DHT22;24239;48.058;10.486;2023-12-14T17:07:22;4.80;99.90
38458;DHT22;24239;48.058;10.486;2023-12-14T17:10:08;4.70;99.90
38458;DHT22;24239;48.058;10.486;2023-12-14T17:12:54;4.80;99.90
38458;DHT22;24239;48.058;10.486;2023-12-14T17:15:41;4.80;99.90
38458;DHT22;24239;48.058;10.486;2023-12-14T17:18:27;4.80;99.90
38458;DHT22;24239;48.058;10.486;2023-12-14T17:24:03;4.90;99.90
38458;DHT22;24239;48.058;10.486;2023-12-14T17:26:51;5.00;99.90
38458;DHT22;24239;48.058;10.486;2023-12-14T17:29:37;5.00;99.90
38458;DHT22;24239;48.058;10.486;2023-12-14T17:32:22;5.10;99.90
38458;DHT22;24239;48.058;10.486;2023-12-14T17:35:09;5.00;99.90
38458;DHT22;24239;48.058;10.486;2023-12-14T17:37:56;5.00;99.90
38458;DHT22;24239;48.058;10.486;2023-12-14T17:40:45;5.00;99.90